Time;durP1;ratioP1;P1;durP2;ratioP2;P2;SDS_P1;SDS_P2;PMS_P1;PMS_P2;Temp;Humidity;BMP_temperature;BMP_pressure;BME280_temperature;BME280_humidity;BME280_pressure;Samples;Min_cycle;Max_cycle;Signal;HPM_P1;HPM_P2
2021/09/08 00:00:27;;;;;;;19.20;7.88;;;410.20;2176.00;;;;;;4880919;29;20029;-76
2021/09/08 00:02:53;;;;;;;19.10;8.55;;;410.20;2176.00;;;;;;4886968;29;20040;-80
2021/09/08 00:05:19;;;;;;;19.30;7.25;;;410.20;2176.00;;;;;;4880438;29;20060;-78
2021/09/08 00:07:45;;;;;;;15.63;6.90;;;410.30;2176.00;;;;;;4888177;29;20039;-76
2021/09/08 00:10:12;;;;;;;14.18;7.68;;;410.30;2176.00;;;;;;4887140;29;20025;-80
2021/09/08 00:12:38;;;;;;;17.20;8.13;;;410.20;2176.00;;;;;;4892415;29;20387;-78
2021/09/08 00:15:08;;;;;;;13.23;7.03;;;410.20;2176.00;;;;;;4889870;29;20017;-78
2021/09/08 00:17:34;;;;;;;13.98;6.78;;;410.20;2176.00;;;;;;4905522;29;20029;-76
2021/09/08 00:19:59;;;;;;;15.18;7.63;;;410.20;2176.00;;;;;;4906774;29;20032;-79
2021/09/08 00:22:25;;;;;;;15.48;7.55;;;410.20;2176.00;;;;;;4904421;29;20564;-76
2021/09/08 00:24:51;;;;;;;11.32;7.13;;;410.40;2176.00;;;;;;4905972;29;20024;-76
2021/09/08 00:27:17;;;;;;;20.58;7.97;;;410.30;2176.00;;;;;;4904022;29;20035;-76
2021/09/08 00:29:43;;;;;;;16.27;6.80;;;410.30;2176.00;;;;;;4906815;29;20080;-75
2021/09/08 00:32:09;;;;;;;13.10;7.13;;;410.30;2201.60;;;;;;4887969;29;20483;-77
2021/09/08 00:34:35;;;;;;;13.20;6.55;;;410.20;2176.00;;;;;;4905598;29;20043;-77
2021/09/08 00:37:01;;;;;;;17.65;7.13;;;410.20;2201.60;;;;;;4889503;29;20135;-77
2021/09/08 00:39:26;;;;;;;16.58;7.80;;;410.20;2201.60;;;;;;4890188;29;20032;-75
2021/09/08 00:41:52;;;;;;;18.02;7.72;;;410.20;2201.60;;;;;;4904664;29;20391;-76
2021/09/08 00:44:18;;;;;;;13.35;6.82;;;410.20;2201.60;;;;;;4904728;29;20095;-75
2021/09/08 00:46:45;;;;;;;22.05;8.68;;;410.20;2201.60;;;;;;4889707;29;20074;-77
2021/09/08 00:49:12;;;;;;;12.57;7.30;;;410.20;2227.20;;;;;;4889810;29;20459;-80
2021/09/08 00:51:38;;;;;;;15.15;7.03;;;410.20;2227.20;;;;;;4889442;29;20025;-79
2021/09/08 00:54:11;;;;;;;13.27;6.50;;;410.10;2227.20;;;;;;4889368;29;20063;-77
2021/09/08 00:56:37;;;;;;;14.70;6.57;;;410.00;2227.20;;;;;;4904244;29;20024;-78
2021/09/08 00:59:04;;;;;;;12.07;7.18;;;409.90;2252.80;;;;;;4906803;29;20102;-79
2021/09/08 01:01:30;;;;;;;13.98;6.85;;;409.90;2252.80;;;;;;4906720;29;20077;-76
2021/09/08 01:03:56;;;;;;;10.25;5.97;;;409.90;2252.80;;;;;;4888474;29;20117;-77
2021/09/08 01:06:21;;;;;;;9.68;6.05;;;409.90;2252.80;;;;;;4906648;29;20400;-79
2021/09/08 01:08:49;;;;;;;11.45;5.70;;;409.70;2278.40;;;;;;4906138;29;20044;-80
2021/09/08 01:11:15;;;;;;;11.57;7.13;;;409.80;2278.40;;;;;;4890782;29;20087;-77
2021/09/08 01:13:41;;;;;;;9.32;6.20;;;409.90;2278.40;;;;;;4908374;29;20052;-76
2021/09/08 01:16:07;;;;;;;9.75;5.80;;;409.90;2278.40;;;;;;4909679;29;20039;-80
2021/09/08 01:18:33;;;;;;;9.32;5.03;;;409.70;2304.00;;;;;;4908941;29;20029;-78
2021/09/08 01:20:59;;;;;;;9.30;6.20;;;409.70;2304.00;;;;;;4907905;29;20024;-79
2021/09/08 01:23:25;;;;;;;10.82;6.18;;;409.80;2278.40;;;;;;4907815;29;20044;-77
2021/09/08 01:25:52;;;;;;;12.27;5.63;;;409.70;2304.00;;;;;;4909411;29;20024;-80
2021/09/08 01:28:18;;;;;;;11.45;6.32;;;409.80;2278.40;;;;;;4892090;29;20032;-76
2021/09/08 01:30:43;;;;;;;10.60;6.68;;;409.70;2304.00;;;;;;4907553;29;20471;-80
2021/09/08 01:33:13;;;;;;;10.68;6.30;;;409.90;2278.40;;;;;;4909462;29;20107;-80
2021/09/08 01:35:40;;;;;;;12.95;5.93;;;409.90;2278.40;;;;;;4892341;29;20044;-81
2021/09/08 01:38:06;;;;;;;8.38;5.43;;;409.90;2304.00;;;;;;4907239;29;20033;-76
2021/09/08 01:40:32;;;;;;;10.55;5.97;;;409.80;2304.00;;;;;;4910606;29;20032;-80
2021/09/08 01:42:59;;;;;;;8.13;5.32;;;409.70;2304.00;;;;;;4906875;29;20540;-80
2021/09/08 01:45:26;;;;;;;14.70;5.90;;;409.70;2304.00;;;;;;4892733;29;20024;-80
2021/09/08 01:47:56;;;;;;;15.77;6.13;;;409.70;2304.00;;;;;;4908056;29;20360;-79
2021/09/08 01:50:22;;;;;;;12.85;6.07;;;409.70;2304.00;;;;;;4907714;29;20024;-80
2021/09/08 01:52:48;;;;;;;11.10;6.13;;;409.60;2329.60;;;;;;4906971;29;20152;-81
2021/09/08 01:55:15;;;;;;;11.07;6.47;;;409.60;2329.60;;;;;;4908287;29;20049;-79
2021/09/08 01:57:40;;;;;;;8.55;6.13;;;409.60;2329.60;;;;;;4908167;29;20553;-80
2021/09/08 02:00:08;;;;;;;10.80;6.00;;;384.90;2304.00;;;;;;4911229;29;20111;-77
2021/09/08 02:02:34;;;;;;;14.68;6.70;;;384.90;2304.00;;;;;;4907951;29;20025;-80
2021/09/08 02:05:00;;;;;;;7.45;5.32;;;384.80;2304.00;;;;;;4907350;29;20043;-77
2021/09/08 02:07:26;;;;;;;13.38;6.47;;;384.70;2304.00;;;;;;4909450;29;20020;-76
2021/09/08 02:09:52;;;;;;;12.38;5.63;;;384.80;2304.00;;;;;;4907198;29;20048;-80
2021/09/08 02:12:18;;;;;;;9.93;6.03;;;384.70;2304.00;;;;;;4907797;29;20449;-79
2021/09/08 02:14:44;;;;;;;10.85;5.78;;;384.70;2304.00;;;;;;4909236;29;20025;-78
2021/09/08 02:17:10;;;;;;;15.73;6.35;;;384.50;2329.60;;;;;;4908608;29;20031;-79
2021/09/08 02:19:36;;;;;;;9.23;5.63;;;384.50;2329.60;;;;;;4907772;29;20024;-77
2021/09/08 02:22:02;;;;;;;11.48;6.70;;;384.50;2329.60;;;;;;4906023;29;20031;-79
2021/09/08 02:24:28;;;;;;;9.80;5.95;;;384.40;2329.60;;;;;;4891602;29;20435;-76
2021/09/08 02:26:53;;;;;;;11.68;6.38;;;384.40;2329.60;;;;;;4889233;29;20063;-79
2021/09/08 02:29:19;;;;;;;11.80;5.82;;;384.30;2329.60;;;;;;4891089;29;20447;-76
2021/09/08 02:31:45;;;;;;;11.40;6.55;;;384.30;2329.60;;;;;;4906217;29;20033;-78
2021/09/08 02:34:11;;;;;;;14.45;7.07;;;384.30;2329.60;;;;;;4906523;29;20103;-79
2021/09/08 02:36:37;;;;;;;14.73;6.18;;;384.30;2329.60;;;;;;4907219;29;20017;-79
2021/09/08 02:39:03;;;;;;;9.48;6.05;;;384.30;2329.60;;;;;;4906895;29;20083;-79
2021/09/08 02:41:29;;;;;;;8.40;5.35;;;384.50;2304.00;;;;;;4908198;29;20430;-80
2021/09/08 02:43:55;;;;;;;15.77;6.60;;;384.40;2329.60;;;;;;4906721;29;20032;-76
2021/09/08 02:46:21;;;;;;;15.02;6.65;;;384.30;2329.60;;;;;;4906815;29;20072;-78
2021/09/08 02:48:47;;;;;;;10.63;5.97;;;384.10;2329.60;;;;;;4891093;29;20074;-80
2021/09/08 02:51:13;;;;;;;8.00;5.78;;;384.00;2329.60;;;;;;4889752;29;20037;-78
2021/09/08 02:53:38;;;;;;;9.05;6.35;;;384.00;2329.60;;;;;;4907151;29;20025;-80
2021/09/08 02:56:04;;;;;;;9.15;6.25;;;384.00;2329.60;;;;;;4891282;29;20603;-76
2021/09/08 02:58:30;;;;;;;10.57;6.13;;;384.00;2329.60;;;;;;4907572;29;20035;-79
2021/09/08 03:00:57;;;;;;;12.20;6.32;;;384.00;2329.60;;;;;;4910497;29;20023;-80
2021/09/08 03:03:23;;;;;;;11.48;6.47;;;359.20;2329.60;;;;;;4907999;29;20180;-80
2021/09/08 03:05:49;;;;;;;8.98;6.03;;;359.30;2329.60;;;;;;4905355;29;20431;-81
2021/09/08 03:08:16;;;;;;;16.48;6.88;;;384.00;2329.60;;;;;;4912782;29;20020;-76
2021/09/08 03:10:43;;;;;;;8.65;5.65;;;384.00;2329.60;;;;;;4930637;29;20064;-81
2021/09/08 03:13:15;;;;;;;9.45;6.70;;;384.10;2329.60;;;;;;4902610;29;20033;-81
2021/09/08 03:15:41;;;;;;;14.55;7.35;;;384.10;2329.60;;;;;;4890377;29;20427;-82
2021/09/08 03:18:07;;;;;;;21.52;8.20;;;384.10;2329.60;;;;;;4888724;29;20036;-80
2021/09/08 03:20:33;;;;;;;10.95;6.75;;;384.10;2329.60;;;;;;4907899;29;20096;-76
2021/09/08 03:23:00;;;;;;;12.50;6.60;;;359.30;2329.60;;;;;;4890296;29;20115;-79
2021/09/08 03:25:26;;;;;;;11.98;7.10;;;359.30;2329.60;;;;;;4906127;29;20031;-76
2021/09/08 03:27:52;;;;;;;11.43;6.20;;;359.20;2329.60;;;;;;4891260;29;20079;-82
2021/09/08 03:30:19;;;;;;;9.65;5.70;;;359.10;2329.60;;;;;;4904362;29;20021;-81
2021/09/08 03:32:44;;;;;;;13.73;6.80;;;359.30;2329.60;;;;;;4906214;29;20024;-81
2021/09/08 03:35:10;;;;;;;10.40;6.07;;;359.20;2329.60;;;;;;4891196;29;20032;-81
2021/09/08 03:37:36;;;;;;;9.48;6.75;;;359.20;2329.60;;;;;;4906102;29;20530;-81
2021/09/08 03:40:03;;;;;;;12.52;6.68;;;359.10;2329.60;;;;;;4905675;29;20080;-79
2021/09/08 03:42:28;;;;;;;16.02;6.95;;;359.10;2329.60;;;;;;4907825;29;20107;-82
2021/09/08 03:44:54;;;;;;;10.32;6.10;;;359.10;2329.60;;;;;;4907721;29;20115;-82
2021/09/08 03:47:20;;;;;;;13.55;8.13;;;358.90;2329.60;;;;;;4906466;29;20021;-82
2021/09/08 03:49:46;;;;;;;11.52;7.38;;;358.90;2329.60;;;;;;4905002;29;20083;-76
2021/09/08 03:52:13;;;;;;;14.20;7.13;;;358.90;2329.60;;;;;;4890895;29;20024;-81
2021/09/08 03:54:39;;;;;;;11.10;7.00;;;359.00;2329.60;;;;;;4906424;29;20028;-81
2021/09/08 03:57:08;;;;;;;18.77;6.47;;;359.00;2329.60;;;;;;4905919;29;20036;-82
2021/09/08 03:59:35;;;;;;;9.88;6.25;;;359.00;2329.60;;;;;;4905779;29;20092;-76
2021/09/08 04:02:01;;;;;;;13.68;6.93;;;359.10;2329.60;;;;;;4888747;29;20040;-81
2021/09/08 04:04:27;;;;;;;22.20;7.53;;;359.10;2329.60;;;;;;4891329;29;20486;-76
2021/09/08 04:06:53;;;;;;;13.68;7.15;;;359.10;2329.60;;;;;;4908344;29;20083;-81
2021/09/08 04:09:19;;;;;;;9.35;6.18;;;359.00;2329.60;;;;;;4906628;29;20462;-81
2021/09/08 04:11:45;;;;;;;17.85;7.53;;;359.10;2329.60;;;;;;4890067;29;20406;-76
2021/09/08 04:14:11;;;;;;;18.58;7.95;;;359.10;2329.60;;;;;;4902571;29;20083;-82
2021/09/08 04:16:37;;;;;;;14.23;7.82;;;359.00;2329.60;;;;;;4904497;29;20036;-81
2021/09/08 04:19:03;;;;;;;13.88;6.47;;;359.10;2329.60;;;;;;4905839;29;20040;-82
2021/09/08 04:21:29;;;;;;;12.88;6.57;;;359.10;2329.60;;;;;;4888334;29;20041;-78
2021/09/08 04:23:55;;;;;;;10.45;6.43;;;359.20;2329.60;;;;;;4913882;29;20493;-76
2021/09/08 04:26:22;;;;;;;9.02;6.03;;;359.10;2329.60;;;;;;4933439;29;20024;-81
2021/09/08 04:28:48;;;;;;;15.98;6.30;;;359.10;2329.60;;;;;;4918964;29;20434;-76
2021/09/08 04:31:14;;;;;;;13.85;6.63;;;359.10;2329.60;;;;;;4890714;29;20063;-79
2021/09/08 04:33:40;;;;;;;15.95;6.15;;;359.10;2329.60;;;;;;4906293;29;20067;-81
2021/09/08 04:36:06;;;;;;;11.85;5.90;;;359.20;2329.60;;;;;;4906508;29;20036;-81
2021/09/08 04:38:31;;;;;;;11.48;5.93;;;359.20;2329.60;;;;;;4890922;29;20476;-76
2021/09/08 04:40:57;;;;;;;18.25;6.18;;;359.20;2329.60;;;;;;4905413;29;20040;-82
2021/09/08 04:43:23;;;;;;;13.38;6.22;;;359.30;2329.60;;;;;;4919797;29;20055;-81
2021/09/08 04:45:49;;;;;;;20.27;7.07;;;359.20;2329.60;;;;;;4917777;29;20494;-81
2021/09/08 04:48:15;;;;;;;23.50;7.38;;;359.20;2329.60;;;;;;4897012;29;20046;-78
2021/09/08 04:50:41;;;;;;;18.10;6.72;;;359.30;2329.60;;;;;;4916341;29;20024;-79
2021/09/08 04:53:07;;;;;;;16.27;6.53;;;359.30;2329.60;;;;;;4909358;29;20056;-78
2021/09/08 04:55:33;;;;;;;11.68;6.30;;;384.00;2329.60;;;;;;4892365;29;20024;-75
2021/09/08 04:57:59;;;;;;;11.35;5.63;;;384.00;2329.60;;;;;;4907501;29;20033;-76
2021/09/08 05:00:25;;;;;;;15.75;6.07;;;384.10;2329.60;;;;;;4907843;29;20028;-78
2021/09/08 05:02:51;;;;;;;24.42;7.90;;;384.20;2329.60;;;;;;4908717;29;20401;-79
2021/09/08 05:05:17;;;;;;;16.80;6.13;;;384.30;2329.60;;;;;;4890624;29;20108;-80
2021/09/08 05:07:42;;;;;;;11.95;6.60;;;384.40;2329.60;;;;;;4909138;29;20031;-86
2021/09/08 05:10:08;;;;;;;18.05;7.32;;;384.40;2329.60;;;;;;4893174;29;20107;-77
2021/09/08 05:12:34;;;;;;;12.20;6.18;;;384.60;2329.60;;;;;;4916103;29;20175;-77
2021/09/08 05:15:00;;;;;;;15.38;6.40;;;384.60;2329.60;;;;;;4913261;29;20103;-76
2021/09/08 05:17:26;;;;;;;18.80;7.05;;;384.60;2329.60;;;;;;4913172;29;20032;-78
2021/09/08 05:19:52;;;;;;;10.95;5.18;;;384.70;2329.60;;;;;;4893585;29;20028;-80
2021/09/08 05:22:18;;;;;;;12.93;6.82;;;384.80;2304.00;;;;;;4929080;29;20117;-75
2021/09/08 05:24:44;;;;;;;15.63;5.45;;;409.60;2329.60;;;;;;4934639;29;20032;-76
2021/09/08 05:27:10;;;;;;;9.65;5.20;;;409.70;2329.60;;;;;;4901444;29;20390;-76
2021/09/08 05:29:36;;;;;;;12.25;5.90;;;409.70;2355.20;;;;;;4918625;29;20499;-79
2021/09/08 05:32:02;;;;;;;11.35;5.32;;;409.90;2355.20;;;;;;4918374;29;20038;-80
2021/09/08 05:34:27;;;;;;;16.33;5.78;;;409.90;2355.20;;;;;;4912636;29;20029;-80
2021/09/08 05:36:53;;;;;;;19.92;5.80;;;410.00;2355.20;;;;;;4910782;29;20032;-81
2021/09/08 05:39:19;;;;;;;15.98;5.05;;;410.00;2355.20;;;;;;4910160;29;20047;-79
2021/09/08 05:41:44;;;;;;;17.20;5.40;;;410.20;2355.20;;;;;;4908245;29;20039;-81
2021/09/08 05:44:10;;;;;;;10.02;4.28;;;410.50;2355.20;;;;;;4909278;29;20107;-76
2021/09/08 05:46:36;;;;;;;9.13;3.90;;;435.20;2355.20;;;;;;4918290;29;20039;-80
2021/09/08 05:49:02;;;;;;;19.33;5.80;;;435.40;2355.20;;;;;;4918332;29;20020;-76
2021/09/08 05:51:28;;;;;;;8.02;4.50;;;435.60;2355.20;;;;;;4901171;29;20572;-80
2021/09/08 05:53:53;;;;;;;12.63;4.57;;;435.70;2355.20;;;;;;4918249;29;20494;-80
2021/09/08 05:56:19;;;;;;;10.93;3.97;;;435.80;2329.60;;;;;;4917314;29;20032;-76
2021/09/08 05:58:45;;;;;;;8.23;3.38;;;435.90;2329.60;;;;;;4917628;29;20028;-76
2021/09/08 06:01:11;;;;;;;9.43;3.75;;;460.80;2304.00;;;;;;4917753;29;20036;-81
2021/09/08 06:03:36;;;;;;;10.95;3.67;;;461.00;2278.40;;;;;;4912354;29;20173;-78
2021/09/08 06:06:02;;;;;;;9.43;3.15;;;461.20;2252.80;;;;;;4917797;29;20020;-80
2021/09/08 06:08:30;;;;;;;10.85;3.67;;;461.30;2176.00;;;;;;4906495;29;20027;-81
2021/09/08 06:10:56;;;;;;;10.23;3.40;;;461.50;2176.00;;;;;;4920885;29;20035;-79
2021/09/08 06:13:22;;;;;;;12.23;3.47;;;461.60;2150.40;;;;;;4900575;29;20386;-79
2021/09/08 06:15:49;;;;;;;7.88;3.20;;;486.40;2073.60;;;;;;4918080;29;20032;-81
2021/09/08 06:18:14;;;;;;;8.60;3.95;;;486.50;2099.20;;;;;;4917503;29;20027;-80
2021/09/08 06:20:40;;;;;;;7.88;3.10;;;486.70;2048.00;;;;;;4909017;29;20027;-77
2021/09/08 06:23:06;;;;;;;6.18;3.15;;;486.80;2048.00;;;;;;4919412;29;20052;-76
2021/09/08 06:25:32;;;;;;;6.30;3.13;;;487.00;1971.20;;;;;;4913337;29;20386;-79
2021/09/08 06:27:58;;;;;;;8.55;3.30;;;487.00;1996.80;;;;;;4929509;29;20094;-80
2021/09/08 06:30:24;;;;;;;6.00;2.50;;;487.20;1971.20;;;;;;4936634;29;20030;-79
2021/09/08 06:32:49;;;;;;;13.20;3.47;;;487.30;1945.60;;;;;;4936438;29;20039;-80
2021/09/08 06:35:15;;;;;;;8.63;2.92;;;512.10;1945.60;;;;;;4936279;29;20035;-79
2021/09/08 06:37:43;;;;;;;10.90;3.28;;;512.20;1920.00;;;;;;4936150;29;20418;-80
2021/09/08 06:40:10;;;;;;;12.88;3.70;;;512.40;1894.40;;;;;;4936194;29;20063;-81
2021/09/08 06:42:36;;;;;;;5.82;2.42;;;512.70;1894.40;;;;;;4935954;29;20031;-78
2021/09/08 06:45:02;;;;;;;7.30;2.88;;;512.80;1868.80;;;;;;4936427;29;20074;-80
2021/09/08 06:47:28;;;;;;;12.77;3.13;;;537.60;1868.80;;;;;;4936512;29;20024;-76
2021/09/08 06:49:54;;;;;;;7.63;2.90;;;537.80;1843.20;;;;;;4936215;29;20031;-80
2021/09/08 06:52:20;;;;;;;10.18;3.15;;;538.00;1817.60;;;;;;4936513;29;20023;-80
2021/09/08 06:54:46;;;;;;;15.02;2.60;;;538.10;1817.60;;;;;;4910444;29;20060;-81
2021/09/08 06:57:13;;;;;;;13.38;3.35;;;538.30;1792.00;;;;;;4932126;29;20141;-77
2021/09/08 06:59:43;;;;;;;8.25;2.70;;;538.40;1766.40;;;;;;4919229;29;20020;-80
2021/09/08 07:02:10;;;;;;;9.18;2.42;;;538.50;1740.80;;;;;;4918688;29;20040;-76
2021/09/08 07:04:36;;;;;;;7.00;2.42;;;563.30;1766.40;;;;;;4935991;29;20039;-77
2021/09/08 07:07:02;;;;;;;9.20;2.83;;;563.40;1689.60;;;;;;4935829;29;20028;-78
2021/09/08 07:09:27;;;;;;;5.43;2.40;;;563.50;1715.20;;;;;;4931316;29;20020;-78
2021/09/08 07:11:53;;;;;;;6.78;2.67;;;563.60;1689.60;;;;;;4926163;29;20502;-79
2021/09/08 07:14:19;;;;;;;12.38;3.13;;;563.80;1638.40;;;;;;4922438;29;20387;-76
2021/09/08 07:16:45;;;;;;;8.35;2.28;;;564.00;1664.00;;;;;;4920928;29;20031;-75
2021/09/08 07:19:11;;;;;;;9.77;2.88;;;564.10;1664.00;;;;;;4911013;29;20040;-77
2021/09/08 07:21:37;;;;;;;8.80;2.40;;;588.80;1638.40;;;;;;4931602;29;20083;-77
2021/09/08 07:24:03;;;;;;;11.52;2.90;;;588.90;1587.20;;;;;;4910446;29;20043;-78
2021/09/08 07:26:35;;;;;;;5.85;2.70;;;589.00;1612.80;;;;;;4912792;29;20027;-78
2021/09/08 07:29:05;;;;;;;8.85;2.47;;;589.00;1587.20;;;;;;4935397;29;20371;-81
2021/09/08 07:31:31;;;;;;;6.07;2.40;;;589.20;1561.60;;;;;;4935555;29;20030;-77
2021/09/08 07:33:58;;;;;;;9.82;2.80;;;589.20;1561.60;;;;;;4891915;29;20099;-79
2021/09/08 07:36:25;;;;;;;19.58;3.60;;;589.20;1536.00;;;;;;4935348;29;20423;-76
2021/09/08 07:38:52;;;;;;;9.13;2.75;;;589.30;1536.00;;;;;;4917974;29;20012;-81
2021/09/08 07:41:19;;;;;;;8.38;2.50;;;589.30;1561.60;;;;;;4926425;29;20030;-76
2021/09/08 07:43:46;;;;;;;14.57;3.22;;;589.40;1536.00;;;;;;4921512;29;20036;-79
2021/09/08 07:46:13;;;;;;;10.63;2.35;;;589.50;1536.00;;;;;;4918282;29;20036;-77
2021/09/08 07:48:39;;;;;;;8.95;2.50;;;589.50;1510.40;;;;;;4934853;29;20030;-79
2021/09/08 07:51:06;;;;;;;15.77;3.50;;;589.60;1510.40;;;;;;4935118;29;20024;-75
2021/09/08 07:53:32;;;;;;;9.77;2.88;;;589.60;1484.80;;;;;;4918032;29;20055;-81
2021/09/08 07:55:58;;;;;;;8.77;2.42;;;589.70;1459.20;;;;;;4934630;29;20611;-80
2021/09/08 07:58:24;;;;;;;6.38;2.78;;;589.60;1484.80;;;;;;4935449;29;20044;-76
2021/09/08 08:00:50;;;;;;;6.07;3.28;;;589.70;1484.80;;;;;;4934875;29;20473;-82
2021/09/08 08:03:15;;;;;;;6.25;2.67;;;589.70;1484.80;;;;;;4935042;29;20494;-76
2021/09/08 08:05:41;;;;;;;8.60;3.42;;;614.40;1484.80;;;;;;4934590;29;20108;-76
2021/09/08 08:08:07;;;;;;;6.22;2.50;;;589.70;1484.80;;;;;;4918020;29;20785;-78
2021/09/08 08:10:33;;;;;;;8.35;3.03;;;589.70;1484.80;;;;;;4934625;29;20032;-80
2021/09/08 08:12:58;;;;;;;13.07;3.10;;;614.40;1510.40;;;;;;4921208;29;20035;-79
2021/09/08 08:15:25;;;;;;;10.50;3.05;;;589.70;1484.80;;;;;;4919608;29;20423;-78
2021/09/08 08:17:51;;;;;;;10.18;2.70;;;614.50;1484.80;;;;;;4915564;29;20411;-78
2021/09/08 08:20:18;;;;;;;10.20;2.72;;;614.70;1433.60;;;;;;4920338;29;20024;-79
2021/09/08 08:22:44;;;;;;;13.18;3.80;;;614.60;1484.80;;;;;;4917472;29;20099;-81
2021/09/08 08:25:14;;;;;;;11.88;4.10;;;614.80;1459.20;;;;;;4904438;29;20031;-77
2021/09/08 08:27:40;;;;;;;8.48;3.08;;;614.90;1459.20;;;;;;4934526;29;20071;-77
2021/09/08 08:30:07;;;;;;;8.05;3.13;;;615.00;1433.60;;;;;;4933382;29;20040;-79
2021/09/08 08:32:33;;;;;;;11.02;2.78;;;615.00;1382.40;;;;;;4934492;29;20026;-77
2021/09/08 08:34:59;;;;;;;11.85;2.90;;;615.00;1408.00;;;;;;4921219;29;20048;-78
2021/09/08 08:37:25;;;;;;;5.80;2.28;;;615.00;1382.40;;;;;;4934471;29;20032;-77
2021/09/08 08:39:51;;;;;;;8.88;2.92;;;614.90;1382.40;;;;;;4934580;29;20032;-78
2021/09/08 08:42:26;;;;;;;7.40;3.05;;;614.90;1382.40;;;;;;4934107;29;20024;-78
2021/09/08 08:44:52;;;;;;;11.40;3.47;;;614.90;1382.40;;;;;;4934355;29;20034;-79
2021/09/08 08:47:19;;;;;;;11.43;3.08;;;615.00;1382.40;;;;;;4934310;29;20015;-76
2021/09/08 08:49:45;;;;;;;9.60;2.78;;;615.20;1382.40;;;;;;4933130;29;20083;-78
2021/09/08 08:52:13;;;;;;;7.38;2.70;;;615.10;1356.80;;;;;;4934001;29;20058;-78
2021/09/08 08:54:38;;;;;;;9.00;3.00;;;615.20;1331.20;;;;;;4934006;29;20034;-79
2021/09/08 08:57:08;;;;;;;7.68;2.90;;;615.20;1382.40;;;;;;4920777;29;20028;-78
2021/09/08 08:59:38;;;;;;;7.47;2.95;;;615.30;1382.40;;;;;;4917633;29;20048;-76
2021/09/08 09:02:23;;;;;;;11.15;3.17;;;615.30;1356.80;;;;;;4905104;29;20394;-79
2021/09/08 09:04:51;;;;;;;9.40;3.58;;;640.00;1331.20;;;;;;4888116;29;20124;-76
2021/09/08 09:07:43;;;;;;;12.60;3.45;;;615.30;1331.20;;;;;;4914838;29;20103;-78
2021/09/08 09:10:13;;;;;;;11.10;2.97;;;640.10;1356.80;;;;;;4911681;29;20032;-79
2021/09/08 09:12:43;;;;;;;10.27;3.40;;;615.30;1356.80;;;;;;4884637;29;20044;-76
2021/09/08 09:15:17;;;;;;;10.77;3.67;;;640.10;1356.80;;;;;;4914813;29;20079;-80
2021/09/08 09:17:45;;;;;;;8.73;3.10;;;640.20;1305.60;;;;;;4914840;29;20497;-77
2021/09/08 09:20:15;;;;;;;9.30;3.22;;;640.20;1331.20;;;;;;4915269;29;20027;-77
2021/09/08 09:22:46;;;;;;;5.80;3.00;;;640.30;1280.00;;;;;;4908788;29;20043;-82
2021/09/08 09:25:14;;;;;;;6.43;3.22;;;640.40;1228.80;;;;;;4934526;29;20110;-82
2021/09/08 09:27:52;;;;;;;8.10;3.47;;;640.20;1280.00;;;;;;4934133;29;20024;-76
2021/09/08 09:30:27;;;;;;;17.83;5.10;;;640.10;1280.00;;;;;;4934110;29;20020;-82
2021/09/08 09:32:54;;;;;;;9.13;3.60;;;640.10;1254.40;;;;;;4937516;29;20039;-80
2021/09/08 09:35:24;;;;;;;6.00;3.00;;;640.20;1280.00;;;;;;4910841;29;20056;-78
2021/09/08 09:38:04;;;;;;;9.38;3.63;;;640.30;1305.60;;;;;;4909805;29;20024;-82
2021/09/08 09:40:35;;;;;;;16.30;3.63;;;640.60;1280.00;;;;;;4915637;29;20020;-79
2021/09/08 09:43:10;;;;;;;9.00;3.42;;;640.70;1254.40;;;;;;4909249;29;20040;-79
2021/09/08 09:45:38;;;;;;;14.98;3.67;;;640.70;1280.00;;;;;;4918263;29;20386;-77
2021/09/08 09:48:05;;;;;;;9.82;3.00;;;665.60;1254.40;;;;;;4927189;29;20083;-77
2021/09/08 09:50:32;;;;;;;13.65;3.97;;;640.90;1254.40;;;;;;4927419;29;20026;-76
2021/09/08 09:52:58;;;;;;;14.73;3.83;;;640.70;1254.40;;;;;;4913949;29;20106;-80
2021/09/08 09:55:25;;;;;;;10.73;2.90;;;665.60;1254.40;;;;;;4923177;29;20056;-76
2021/09/08 09:57:53;;;;;;;11.25;3.55;;;640.90;1254.40;;;;;;4917813;29;20494;-78
2021/09/08 10:00:19;;;;;;;7.78;3.30;;;640.90;1280.00;;;;;;4917931;29;20475;-79
2021/09/08 10:02:46;;;;;;;10.63;3.78;;;665.90;1280.00;;;;;;4917642;29;20032;-81
2021/09/08 10:05:13;;;;;;;8.25;3.30;;;666.00;1280.00;;;;;;4917915;29;20064;-77
2021/09/08 10:07:39;;;;;;;9.40;2.80;;;666.00;1254.40;;;;;;4900870;29;20385;-78
2021/09/08 10:10:19;;;;;;;8.20;3.22;;;666.00;1203.20;;;;;;4910987;29;20111;-78
2021/09/08 10:12:50;;;;;;;14.48;3.70;;;666.50;1280.00;;;;;;4908470;29;20036;-79
2021/09/08 10:15:18;;;;;;;10.32;3.08;;;691.20;1254.40;;;;;;4908796;29;20475;-80
2021/09/08 10:17:46;;;;;;;5.85;3.25;;;666.50;1280.00;;;;;;4889983;29;20021;-78
2021/09/08 10:20:21;;;;;;;8.45;3.55;;;691.20;1280.00;;;;;;4891654;29;20368;-80
2021/09/08 10:22:49;;;;;;;5.13;3.08;;;691.20;1228.80;;;;;;4906696;29;20058;-79
2021/09/08 10:25:17;;;;;;;8.35;3.08;;;666.40;1228.80;;;;;;4890524;29;20029;-78
2021/09/08 10:27:43;;;;;;;12.75;3.60;;;691.20;1228.80;;;;;;4909338;29;20028;-77
2021/09/08 10:30:11;;;;;;;8.15;3.58;;;691.40;1203.20;;;;;;4917522;29;20102;-77
2021/09/08 10:32:38;;;;;;;7.88;3.40;;;691.80;1228.80;;;;;;4917216;29;20024;-80
2021/09/08 10:35:13;;;;;;;8.30;3.67;;;691.80;1177.60;;;;;;4917014;29;20036;-82
2021/09/08 10:37:46;;;;;;;11.33;4.50;;;691.70;1203.20;;;;;;4900297;29;20047;-82
2021/09/08 10:40:14;;;;;;;8.73;3.35;;;691.90;1203.20;;;;;;4908487;29;20779;-77
2021/09/08 10:42:51;;;;;;;11.50;3.55;;;691.90;1203.20;;;;;;4899226;29;20392;-78
2021/09/08 10:45:18;;;;;;;14.75;3.63;;;692.10;1228.80;;;;;;4917036;29;20039;-78
2021/09/08 10:47:44;;;;;;;4.80;3.17;;;717.10;1203.20;;;;;;4918609;29;20067;-77
2021/09/08 10:50:10;;;;;;;12.32;3.63;;;717.10;1203.20;;;;;;4913243;29;20043;-77
2021/09/08 10:52:36;;;;;;;8.25;3.83;;;717.10;1203.20;;;;;;4915809;29;20031;-77
2021/09/08 10:55:02;;;;;;;7.10;2.95;;;717.20;1152.00;;;;;;4916815;29;20035;-77
2021/09/08 10:57:49;;;;;;;10.35;3.47;;;716.90;1203.20;;;;;;4915303;29;20033;-75
2021/09/08 11:00:27;;;;;;;8.73;3.35;;;717.40;1177.60;;;;;;4907444;29;20036;-78
2021/09/08 11:02:53;;;;;;;7.60;3.33;;;717.40;1152.00;;;;;;4907915;29;20107;-78
2021/09/08 11:05:19;;;;;;;7.18;3.15;;;717.10;1152.00;;;;;;4907330;29;20079;-77
2021/09/08 11:07:48;;;;;;;8.38;4.10;;;717.30;1126.40;;;;;;4900438;29;20028;-76
2021/09/08 11:10:26;;;;;;;11.80;3.30;;;717.40;1152.00;;;;;;4904101;29;20085;-76
2021/09/08 11:12:54;;;;;;;7.88;3.08;;;717.40;1100.80;;;;;;4905876;29;20037;-77
2021/09/08 11:15:38;;;;;;;10.60;3.35;;;717.50;1152.00;;;;;;4906281;29;20028;-77
2021/09/08 11:18:13;;;;;;;9.63;3.60;;;717.10;1152.00;;;;;;4915585;29;20023;-78
2021/09/08 11:20:40;;;;;;;11.82;3.53;;;717.30;1152.00;;;;;;4912023;29;20080;-79
2021/09/08 11:23:09;;;;;;;11.60;3.67;;;717.10;1152.00;;;;;;4905470;29;20055;-79
2021/09/08 11:25:39;;;;;;;5.15;3.15;;;717.40;1177.60;;;;;;4899416;29;20058;-82
2021/09/08 11:28:07;;;;;;;8.75;3.17;;;717.70;1177.60;;;;;;4916358;29;20072;-77
2021/09/08 11:30:37;;;;;;;6.72;3.22;;;717.70;1152.00;;;;;;4916186;29;20056;-78
2021/09/08 11:33:13;;;;;;;7.55;3.33;;;717.40;1152.00;;;;;;4916173;29;20020;-77
2021/09/08 11:35:50;;;;;;;10.18;3.53;;;716.90;1152.00;;;;;;4916450;29;20566;-78
2021/09/08 11:38:28;;;;;;;8.10;3.00;;;716.90;1126.40;;;;;;4899150;29;20040;-78
2021/09/08 11:40:56;;;;;;;5.95;2.72;;;717.10;1152.00;;;;;;4899207;29;20215;-77
2021/09/08 11:43:44;;;;;;;13.35;3.65;;;716.90;1126.40;;;;;;4916179;29;20040;-83
2021/09/08 11:46:14;;;;;;;5.18;3.13;;;717.20;1152.00;;;;;;4899252;29;20032;-82
2021/09/08 11:48:41;;;;;;;7.57;3.05;;;717.00;1152.00;;;;;;4915714;29;20024;-78
2021/09/08 11:51:09;;;;;;;10.52;3.50;;;716.80;1126.40;;;;;;4915940;29;20050;-79
2021/09/08 11:53:35;;;;;;;5.63;3.30;;;716.90;1177.60;;;;;;4907197;29;20502;-79
2021/09/08 11:56:13;;;;;;;7.60;3.63;;;716.90;1152.00;;;;;;4896768;29;20036;-82
2021/09/08 11:58:40;;;;;;;8.38;3.50;;;717.10;1177.60;;;;;;4884425;29;20028;-78
2021/09/08 12:01:10;;;;;;;7.40;3.90;;;717.20;1152.00;;;;;;4904846;29;20042;-77
2021/09/08 12:03:49;;;;;;;5.80;3.28;;;717.30;1177.60;;;;;;4918383;29;20036;-78
2021/09/08 12:06:20;;;;;;;10.82;3.30;;;742.40;1152.00;;;;;;4888893;29;20025;-77
2021/09/08 12:09:04;;;;;;;9.07;2.95;;;742.60;1126.40;;;;;;4907091;29;20119;-76
2021/09/08 12:11:45;;;;;;;9.38;3.30;;;742.60;1100.80;;;;;;4910704;29;20071;-77